sensor_id;sensor_type;location;lat;lon;timestamp;P1;durP1;ratioP1;P2;durP2;ratioP2
5878;SDS011;2965;42.640;23.370;2022-10-16T04:03:07;22.70;;;12.70;;
5878;SDS011;2965;42.640;23.370;2022-10-16T04:05:32;19.50;;;12.90;;
5878;SDS011;2965;42.640;23.370;2022-10-16T04:07:58;18.03;;;12.33;;
5878;SDS011;2965;42.640;23.370;2022-10-16T04:10:23;16.23;;;10.80;;
5878;SDS011;2965;42.640;23.370;2022-10-16T04:12:48;17.87;;;12.00;;
5878;SDS011;2965;42.640;23.370;2022-10-16T04:15:14;19.03;;;12.17;;
5878;SDS011;2965;42.640;23.370;2022-10-16T04:17:39;18.40;;;11.00;;
5878;SDS011;2965;42.640;23.370;2022-10-16T04:20:05;16.30;;;11.27;;
5878;SDS011;2965;42.640;23.370;2022-10-16T04:22:30;21.57;;;12.23;;
5878;SDS011;2965;42.640;23.370;2022-10-16T04:24:56;17.33;;;11.23;;
5878;SDS011;2965;42.640;23.370;2022-10-16T04:27:21;16.23;;;11.67;;
5878;SDS011;2965;42.640;23.370;2022-10-16T04:29:46;19.37;;;11.37;;
5878;SDS011;2965;42.640;23.370;2022-10-16T04:32:12;21.03;;;10.10;;
5878;SDS011;2965;42.640;23.370;2022-10-16T04:34:38;15.87;;;9.47;;
5878;SDS011;2965;42.640;23.370;2022-10-16T04:37:04;16.97;;;9.90;;
5878;SDS011;2965;42.640;23.370;2022-10-16T04:39:30;15.87;;;9.67;;
5878;SDS011;2965;42.640;23.370;2022-10-16T04:41:55;12.97;;;8.53;;
5878;SDS011;2965;42.640;23.370;2022-10-16T04:44:21;16.73;;;9.30;;
5878;SDS011;2965;42.640;23.370;2022-10-16T04:46:47;13.83;;;10.50;;
5878;SDS011;2965;42.640;23.370;2022-10-16T04:49:15;12.20;;;10.10;;
5878;SDS011;2965;42.640;23.370;2022-10-16T04:51:40;12.93;;;10.30;;
5878;SDS011;2965;42.640;23.370;2022-10-16T04:54:05;15.20;;;10.73;;
5878;SDS011;2965;42.640;23.370;2022-10-16T04:56:31;12.70;;;9.53;;
5878;SDS011;2965;42.640;23.370;2022-10-16T04:58:56;15.10;;;10.57;;
5878;SDS011;2965;42.640;23.370;2022-10-16T05:01:21;13.10;;;9.17;;
5878;SDS011;2965;42.640;23.370;2022-10-16T05:03:47;14.63;;;8.10;;
5878;SDS011;2965;42.640;23.370;2022-10-16T05:06:12;9.70;;;8.70;;
5878;SDS011;2965;42.640;23.370;2022-10-16T05:08:37;10.30;;;9.20;;
5878;SDS011;2965;42.640;23.370;2022-10-16T05:11:03;16.90;;;9.53;;
5878;SDS011;2965;42.640;23.370;2022-10-16T05:13:28;28.07;;;9.90;;
5878;SDS011;2965;42.640;23.370;2022-10-16T05:15:54;12.80;;;9.53;;
5878;SDS011;2965;42.640;23.370;2022-10-16T05:18:19;11.17;;;9.37;;
5878;SDS011;2965;42.640;23.370;2022-10-16T05:20:44;10.13;;;9.13;;
5878;SDS011;2965;42.640;23.370;2022-10-16T05:23:10;14.40;;;9.43;;
5878;SDS011;2965;42.640;23.370;2022-10-16T05:25:36;17.20;;;10.37;;
5878;SDS011;2965;42.640;23.370;2022-10-16T05:28:02;13.83;;;9.20;;
5878;SDS011;2965;42.640;23.370;2022-10-16T05:30:28;10.20;;;8.93;;
5878;SDS011;2965;42.640;23.370;2022-10-16T05:32:53;20.13;;;8.53;;
5878;SDS011;2965;42.640;23.370;2022-10-16T05:35:19;9.73;;;8.63;;
5878;SDS011;2965;42.640;23.370;2022-10-16T05:37:45;12.33;;;8.70;;
5878;SDS011;2965;42.640;23.370;2022-10-16T05:40:12;14.00;;;9.10;;
5878;SDS011;2965;42.640;23.370;2022-10-16T05:42:38;11.87;;;9.50;;
5878;SDS011;2965;42.640;23.370;2022-10-16T05:45:04;11.53;;;9.30;;
5878;SDS011;2965;42.640;23.370;2022-10-16T05:47:30;17.30;;;10.10;;
5878;SDS011;2965;42.640;23.370;2022-10-16T05:49:56;16.93;;;11.13;;
5878;SDS011;2965;42.640;23.370;2022-10-16T05:52:21;25.53;;;10.43;;
5878;SDS011;2965;42.640;23.370;2022-10-16T05:54:46;11.20;;;9.20;;
5878;SDS011;2965;42.640;23.370;2022-10-16T05:57:12;11.33;;;8.60;;
5878;SDS011;2965;42.640;23.370;2022-10-16T05:59:37;16.93;;;9.67;;
5878;SDS011;2965;42.640;23.370;2022-10-16T06:02:03;17.00;;;9.97;;
5878;SDS011;2965;42.640;23.370;2022-10-16T06:04:28;13.47;;;8.80;;
5878;SDS011;2965;42.640;23.370;2022-10-16T06:06:54;10.13;;;8.80;;
5878;SDS011;2965;42.640;23.370;2022-10-16T06:09:25;13.90;;;10.07;;
5878;SDS011;2965;42.640;23.370;2022-10-16T06:11:50;13.90;;;10.13;;
5878;SDS011;2965;42.640;23.370;2022-10-16T06:14:16;12.53;;;9.03;;
5878;SDS011;2965;42.640;23.370;2022-10-16T06:16:41;14.00;;;8.90;;
5878;SDS011;2965;42.640;23.370;2022-10-16T06:19:07;15.90;;;9.63;;
5878;SDS011;2965;42.640;23.370;2022-10-16T06:21:34;10.63;;;9.63;;
5878;SDS011;2965;42.640;23.370;2022-10-16T06:23:59;13.83;;;9.63;;
5878;SDS011;2965;42.640;23.370;2022-10-16T06:26:25;14.90;;;10.50;;
5878;SDS011;2965;42.640;23.370;2022-10-16T06:28:56;11.60;;;9.97;;
5878;SDS011;2965;42.640;23.370;2022-10-16T06:31:22;14.70;;;10.20;;
5878;SDS011;2965;42.640;23.370;2022-10-16T06:33:52;12.37;;;10.77;;
5878;SDS011;2965;42.640;23.370;2022-10-16T06:36:18;13.70;;;10.50;;
5878;SDS011;2965;42.640;23.370;2022-10-16T06:38:44;12.50;;;10.60;;
5878;SDS011;2965;42.640;23.370;2022-10-16T06:41:14;16.80;;;10.17;;
5878;SDS011;2965;42.640;23.370;2022-10-16T06:43:41;21.50;;;10.07;;
5878;SDS011;2965;42.640;23.370;2022-10-16T06:46:07;13.47;;;9.50;;
5878;SDS011;2965;42.640;23.370;2022-10-16T06:48:36;10.87;;;9.77;;
5878;SDS011;2965;42.640;23.370;2022-10-16T06:51:02;14.70;;;10.03;;
5878;SDS011;2965;42.640;23.370;2022-10-16T06:53:30;10.63;;;9.43;;
5878;SDS011;2965;42.640;23.370;2022-10-16T06:55:57;9.20;;;8.20;;
5878;SDS011;2965;42.640;23.370;2022-10-16T06:58:22;13.70;;;8.70;;
5878;SDS011;2965;42.640;23.370;2022-10-16T07:00:48;13.20;;;10.40;;
5878;SDS011;2965;42.640;23.370;2022-10-16T07:03:13;10.10;;;9.00;;
5878;SDS011;2965;42.640;23.370;2022-10-16T07:05:42;13.00;;;9.63;;
5878;SDS011;2965;42.640;23.370;2022-10-16T07:08:08;10.63;;;9.53;;
5878;SDS011;2965;42.640;23.370;2022-10-16T07:10:34;13.70;;;9.90;;
5878;SDS011;2965;42.640;23.370;2022-10-16T07:13:00;16.43;;;11.77;;
5878;SDS011;2965;42.640;23.370;2022-10-16T07:15:26;22.37;;;11.87;;
5878;SDS011;2965;42.640;23.370;2022-10-16T07:17:51;16.33;;;10.90;;
5878;SDS011;2965;42.640;23.370;2022-10-16T07:20:17;18.50;;;11.90;;
5878;SDS011;2965;42.640;23.370;2022-10-16T07:22:42;19.03;;;10.80;;
5878;SDS011;2965;42.640;23.370;2022-10-16T07:25:08;19.77;;;12.00;;
5878;SDS011;2965;42.640;23.370;2022-10-16T07:27:33;13.50;;;11.03;;
5878;SDS011;2965;42.640;23.370;2022-10-16T07:29:59;15.03;;;9.50;;
5878;SDS011;2965;42.640;23.370;2022-10-16T07:32:25;25.00;;;10.73;;
5878;SDS011;2965;42.640;23.370;2022-10-16T07:34:51;37.70;;;10.27;;
5878;SDS011;2965;42.640;23.370;2022-10-16T07:37:17;20.80;;;11.60;;
5878;SDS011;2965;42.640;23.370;2022-10-16T07:39:42;18.67;;;12.70;;
5878;SDS011;2965;42.640;23.370;2022-10-16T07:42:08;36.40;;;11.20;;
5878;SDS011;2965;42.640;23.370;2022-10-16T07:44:33;16.87;;;11.17;;
5878;SDS011;2965;42.640;23.370;2022-10-16T07:46:59;13.60;;;11.27;;
5878;SDS011;2965;42.640;23.370;2022-10-16T07:49:24;24.23;;;12.77;;
5878;SDS011;2965;42.640;23.370;2022-10-16T07:51:49;14.40;;;9.70;;
5878;SDS011;2965;42.640;23.370;2022-10-16T07:54:15;18.37;;;10.43;;
5878;SDS011;2965;42.640;23.370;2022-10-16T07:56:40;27.03;;;12.47;;
5878;SDS011;2965;42.640;23.370;2022-10-16T07:59:06;21.30;;;12.40;;
5878;SDS011;2965;42.640;23.370;2022-10-16T08:01:31;22.23;;;13.63;;
5878;SDS011;2965;42.640;23.370;2022-10-16T08:03:56;15.27;;;10.73;;
5878;SDS011;2965;42.640;23.370;2022-10-16T08:06:22;19.67;;;12.37;;
5878;SDS011;2965;42.640;23.370;2022-10-16T08:08:48;31.03;;;14.40;;
5878;SDS011;2965;42.640;23.370;2022-10-16T08:11:14;18.10;;;12.13;;
5878;SDS011;2965;42.640;23.370;2022-10-16T08:13:40;13.50;;;10.90;;
5878;SDS011;2965;42.640;23.370;2022-10-16T08:16:06;40.13;;;11.33;;
5878;SDS011;2965;42.640;23.370;2022-10-16T08:18:33;32.30;;;18.23;;
5878;SDS011;2965;42.640;23.370;2022-10-16T08:21:00;48.60;;;18.73;;
5878;SDS011;2965;42.640;23.370;2022-10-16T08:23:25;19.10;;;11.57;;
5878;SDS011;2965;42.640;23.370;2022-10-16T08:25:52;12.90;;;9.80;;
5878;SDS011;2965;42.640;23.370;2022-10-16T08:28:18;16.20;;;9.77;;
5878;SDS011;2965;42.640;23.370;2022-10-16T08:30:44;16.03;;;9.00;;
5878;SDS011;2965;42.640;23.370;2022-10-16T08:33:09;12.03;;;9.77;;
5878;SDS011;2965;42.640;23.370;2022-10-16T08:35:35;13.03;;;9.33;;
5878;SDS011;2965;42.640;23.370;2022-10-16T08:38:02;10.70;;;9.33;;
5878;SDS011;2965;42.640;23.370;2022-10-16T08:40:29;13.80;;;8.87;;
5878;SDS011;2965;42.640;23.370;2022-10-16T08:46:13;10.30;;;9.27;;
5878;SDS011;2965;42.640;23.370;2022-10-16T08:48:50;11.57;;;8.40;;
5878;SDS011;2965;42.640;23.370;2022-10-16T08:51:19;18.50;;;8.17;;
5878;SDS011;2965;42.640;23.370;2022-10-16T08:53:55;11.33;;;7.60;;
5878;SDS011;2965;42.640;23.370;2022-10-16T08:56:23;7.20;;;6.60;;
5878;SDS011;2965;42.640;23.370;2022-10-16T08:58:50;8.47;;;7.70;;
5878;SDS011;2965;42.640;23.370;2022-10-16T09:01:17;10.53;;;6.90;;
5878;SDS011;2965;42.640;23.370;2022-10-16T09:06:49;5.20;;;4.90;;
5878;SDS011;2965;42.640;23.370;2022-10-16T09:09:34;4.60;;;4.40;;
5878;SDS011;2965;42.640;23.370;2022-10-16T09:22:47;5.60;;;5.30;;
5878;SDS011;2965;42.640;23.370;2022-10-16T09:25:17;5.83;;;5.30;;
5878;SDS011;2965;42.640;23.370;2022-10-16T09:27:47;5.57;;;5.17;;
5878;SDS011;2965;42.640;23.370;2022-10-16T09:30:17;5.23;;;5.03;;
5878;SDS011;2965;42.640;23.370;2022-10-16T09:32:46;5.70;;;5.33;;
5878;SDS011;2965;42.640;23.370;2022-10-16T09:35:19;5.37;;;4.97;;
5878;SDS011;2965;42.640;23.370;2022-10-16T09:37:48;5.60;;;5.10;;
5878;SDS011;2965;42.640;23.370;2022-10-16T09:40:34;4.63;;;4.33;;
5878;SDS011;2965;42.640;23.370;2022-10-16T09:43:14;5.07;;;4.87;;
5878;SDS011;2965;42.640;23.370;2022-10-16T09:45:56;6.63;;;5.90;;
5878;SDS011;2965;42.640;23.370;2022-10-16T09:48:48;4.70;;;4.40;;
5878;SDS011;2965;42.640;23.370;2022-10-16T09:54:20;4.20;;;4.00;;
5878;SDS011;2965;42.640;23.370;2022-10-16T09:56:46;5.40;;;5.00;;
5878;SDS011;2965;42.640;23.370;2022-10-16T09:59:20;5.17;;;4.70;;
5878;SDS011;2965;42.640;23.370;2022-10-16T10:01:53;4.40;;;4.13;;
5878;SDS011;2965;42.640;23.370;2022-10-16T10:04:20;5.00;;;4.47;;
5878;SDS011;2965;42.640;23.370;2022-10-16T10:06:49;5.43;;;4.70;;
5878;SDS011;2965;42.640;23.370;2022-10-16T10:09:22;5.00;;;4.67;;
5878;SDS011;2965;42.640;23.370;2022-10-16T10:11:56;6.20;;;5.10;;
5878;SDS011;2965;42.640;23.370;2022-10-16T10:16:51;6.00;;;5.70;;
5878;SDS011;2965;42.640;23.370;2022-10-16T10:19:26;5.70;;;5.30;;
5878;SDS011;2965;42.640;23.370;2022-10-16T10:21:52;5.00;;;4.80;;
5878;SDS011;2965;42.640;23.370;2022-10-16T10:24:19;5.27;;;4.90;;
5878;SDS011;2965;42.640;23.370;2022-10-16T10:26:49;10.27;;;5.37;;
5878;SDS011;2965;42.640;23.370;2022-10-16T10:29:28;5.20;;;4.83;;
5878;SDS011;2965;42.640;23.370;2022-10-16T10:32:16;4.50;;;4.20;;
5878;SDS011;2965;42.640;23.370;2022-10-16T10:34:58;6.03;;;5.47;;
5878;SDS011;2965;42.640;23.370;2022-10-16T10:37:39;5.07;;;4.80;;
5878;SDS011;2965;42.640;23.370;2022-10-16T10:45:47;6.00;;;5.40;;
5878;SDS011;2965;42.640;23.370;2022-10-16T10:51:05;4.53;;;4.23;;
5878;SDS011;2965;42.640;23.370;2022-10-16T11:02:00;4.80;;;4.47;;
5878;SDS011;2965;42.640;23.370;2022-10-16T11:07:46;4.17;;;3.90;;
5878;SDS011;2965;42.640;23.370;2022-10-16T11:12:58;9.00;;;3.50;;
5878;SDS011;2965;42.640;23.370;2022-10-16T11:15:36;6.60;;;3.70;;
5878;SDS011;2965;42.640;23.370;2022-10-16T11:20:43;3.60;;;3.40;;
5878;SDS011;2965;42.640;23.370;2022-10-16T11:23:17;3.80;;;3.60;;
5878;SDS011;2965;42.640;23.370;2022-10-16T11:25:49;2.83;;;2.73;;
5878;SDS011;2965;42.640;23.370;2022-10-16T11:28:16;2.70;;;2.60;;
5878;SDS011;2965;42.640;23.370;2022-10-16T11:33:25;2.60;;;2.50;;
5878;SDS011;2965;42.640;23.370;2022-10-16T11:36:13;6.17;;;2.97;;
5878;SDS011;2965;42.640;23.370;2022-10-16T11:41:42;3.80;;;3.60;;
5878;SDS011;2965;42.640;23.370;2022-10-16T11:49:45;2.87;;;2.77;;
5878;SDS011;2965;42.640;23.370;2022-10-16T11:55:05;3.27;;;3.17;;
5878;SDS011;2965;42.640;23.370;2022-10-16T11:57:40;3.30;;;2.93;;
5878;SDS011;2965;42.640;23.370;2022-10-16T12:00:34;3.07;;;2.97;;
5878;SDS011;2965;42.640;23.370;2022-10-16T12:08:59;2.77;;;2.67;;
5878;SDS011;2965;42.640;23.370;2022-10-16T12:13:51;3.07;;;2.97;;
5878;SDS011;2965;42.640;23.370;2022-10-16T12:18:43;3.33;;;3.03;;
5878;SDS011;2965;42.640;23.370;2022-10-16T12:21:10;3.80;;;3.50;;
5878;SDS011;2965;42.640;23.370;2022-10-16T12:26:29;3.67;;;3.47;;
5878;SDS011;2965;42.640;23.370;2022-10-16T12:28:57;6.20;;;3.30;;
5878;SDS011;2965;42.640;23.370;2022-10-16T12:31:43;3.87;;;3.67;;
5878;SDS011;2965;42.640;23.370;2022-10-16T12:34:32;3.33;;;3.23;;
5878;SDS011;2965;42.640;23.370;2022-10-16T12:37:09;3.10;;;2.90;;
5878;SDS011;2965;42.640;23.370;2022-10-16T12:39:38;4.40;;;2.93;;
5878;SDS011;2965;42.640;23.370;2022-10-16T12:42:05;2.80;;;2.70;;
5878;SDS011;2965;42.640;23.370;2022-10-16T12:44:44;3.27;;;3.10;;
5878;SDS011;2965;42.640;23.370;2022-10-16T12:47:19;3.07;;;2.97;;
5878;SDS011;2965;42.640;23.370;2022-10-16T12:49:52;4.07;;;3.77;;
5878;SDS011;2965;42.640;23.370;2022-10-16T12:54:55;3.87;;;3.33;;
5878;SDS011;2965;42.640;23.370;2022-10-16T13:02:39;3.17;;;3.00;;
5878;SDS011;2965;42.640;23.370;2022-10-16T13:08:13;4.20;;;4.00;;
5878;SDS011;2965;42.640;23.370;2022-10-16T13:11:14;2.97;;;2.87;;
5878;SDS011;2965;42.640;23.370;2022-10-16T13:14:05;3.33;;;3.23;;
5878;SDS011;2965;42.640;23.370;2022-10-16T13:16:54;3.33;;;3.23;;
5878;SDS011;2965;42.640;23.370;2022-10-16T13:23:06;3.60;;;3.40;;
5878;SDS011;2965;42.640;23.370;2022-10-16T13:28:11;3.43;;;3.30;;
5878;SDS011;2965;42.640;23.370;2022-10-16T13:33:10;3.40;;;3.30;;
5878;SDS011;2965;42.640;23.370;2022-10-16T13:35:51;3.50;;;3.20;;
5878;SDS011;2965;42.640;23.370;2022-10-16T13:38:18;3.13;;;3.03;;
5878;SDS011;2965;42.640;23.370;2022-10-16T13:41:05;3.70;;;3.40;;
5878;SDS011;2965;42.640;23.370;2022-10-16T13:43:39;4.80;;;3.77;;
5878;SDS011;2965;42.640;23.370;2022-10-16T13:46:06;3.60;;;3.40;;
5878;SDS011;2965;42.640;23.370;2022-10-16T13:48:37;5.33;;;3.40;;
5878;SDS011;2965;42.640;23.370;2022-10-16T13:51:13;3.27;;;3.07;;
5878;SDS011;2965;42.640;23.370;2022-10-16T13:53:41;4.23;;;3.93;;
5878;SDS011;2965;42.640;23.370;2022-10-16T13:56:10;3.20;;;3.10;;
5878;SDS011;2965;42.640;23.370;2022-10-16T13:58:37;3.73;;;3.40;;
5878;SDS011;2965;42.640;23.370;2022-10-16T14:01:03;3.50;;;3.30;;
5878;SDS011;2965;42.640;23.370;2022-10-16T14:03:31;4.43;;;3.23;;
5878;SDS011;2965;42.640;23.370;2022-10-16T14:06:02;6.63;;;3.50;;
5878;SDS011;2965;42.640;23.370;2022-10-16T14:08:31;3.23;;;3.03;;
5878;SDS011;2965;42.640;23.370;2022-10-16T14:10:58;3.10;;;3.00;;
5878;SDS011;2965;42.640;23.370;2022-10-16T14:13:39;3.30;;;2.83;;
5878;SDS011;2965;42.640;23.370;2022-10-16T14:16:09;3.43;;;3.33;;
5878;SDS011;2965;42.640;23.370;2022-10-16T14:18:41;3.97;;;3.67;;
5878;SDS011;2965;42.640;23.370;2022-10-16T14:21:12;3.63;;;3.53;;
5878;SDS011;2965;42.640;23.370;2022-10-16T14:23:40;4.13;;;3.70;;
5878;SDS011;2965;42.640;23.370;2022-10-16T14:26:12;3.40;;;3.10;;
5878;SDS011;2965;42.640;23.370;2022-10-16T14:28:38;3.23;;;3.13;;
5878;SDS011;2965;42.640;23.370;2022-10-16T14:31:25;3.17;;;3.03;;
5878;SDS011;2965;42.640;23.370;2022-10-16T14:33:52;3.97;;;3.67;;
5878;SDS011;2965;42.640;23.370;2022-10-16T14:36:18;4.03;;;3.73;;
5878;SDS011;2965;42.640;23.370;2022-10-16T14:38:56;4.00;;;3.77;;
5878;SDS011;2965;42.640;23.370;2022-10-16T14:41:27;4.70;;;4.50;;
5878;SDS011;2965;42.640;23.370;2022-10-16T14:43:54;7.07;;;3.37;;
5878;SDS011;2965;42.640;23.370;2022-10-16T14:46:33;8.10;;;3.50;;
5878;SDS011;2965;42.640;23.370;2022-10-16T14:49:03;3.47;;;3.37;;
5878;SDS011;2965;42.640;23.370;2022-10-16T14:51:40;3.97;;;3.67;;
5878;SDS011;2965;42.640;23.370;2022-10-16T14:54:08;4.77;;;3.83;;
5878;SDS011;2965;42.640;23.370;2022-10-16T14:59:43;3.70;;;3.50;;
5878;SDS011;2965;42.640;23.370;2022-10-16T15:02:28;3.97;;;3.77;;
5878;SDS011;2965;42.640;23.370;2022-10-16T15:05:02;3.60;;;3.50;;
5878;SDS011;2965;42.640;23.370;2022-10-16T15:07:51;3.93;;;3.67;;
5878;SDS011;2965;42.640;23.370;2022-10-16T15:10:21;7.23;;;3.40;;
5878;SDS011;2965;42.640;23.370;2022-10-16T15:12:48;5.37;;;4.07;;
5878;SDS011;2965;42.640;23.370;2022-10-16T15:17:43;4.30;;;3.97;;
5878;SDS011;2965;42.640;23.370;2022-10-16T15:20:08;8.20;;;3.90;;
5878;SDS011;2965;42.640;23.370;2022-10-16T15:22:34;4.10;;;3.80;;
5878;SDS011;2965;42.640;23.370;2022-10-16T15:24:59;4.00;;;3.70;;
5878;SDS011;2965;42.640;23.370;2022-10-16T15:27:24;4.23;;;3.90;;
5878;SDS011;2965;42.640;23.370;2022-10-16T15:29:50;3.77;;;3.57;;
5878;SDS011;2965;42.640;23.370;2022-10-16T15:32:15;3.93;;;3.73;;
5878;SDS011;2965;42.640;23.370;2022-10-16T15:34:40;4.07;;;3.77;;
5878;SDS011;2965;42.640;23.370;2022-10-16T15:37:06;4.30;;;4.20;;
5878;SDS011;2965;42.640;23.370;2022-10-16T15:39:31;8.03;;;3.80;;
5878;SDS011;2965;42.640;23.370;2022-10-16T15:41:56;4.00;;;3.80;;
5878;SDS011;2965;42.640;23.370;2022-10-16T15:44:22;3.80;;;3.60;;
5878;SDS011;2965;42.640;23.370;2022-10-16T15:46:50;4.20;;;3.80;;
5878;SDS011;2965;42.640;23.370;2022-10-16T15:49:15;4.20;;;3.90;;
5878;SDS011;2965;42.640;23.370;2022-10-16T15:51:41;5.80;;;4.53;;
5878;SDS011;2965;42.640;23.370;2022-10-16T15:54:07;3.83;;;3.63;;
5878;SDS011;2965;42.640;23.370;2022-10-16T15:56:33;4.87;;;4.57;;
5878;SDS011;2965;42.640;23.370;2022-10-16T15:58:59;5.73;;;5.20;;
5878;SDS011;2965;42.640;23.370;2022-10-16T16:01:25;4.97;;;4.53;;
5878;SDS011;2965;42.640;23.370;2022-10-16T16:03:54;5.80;;;5.40;;
5878;SDS011;2965;42.640;23.370;2022-10-16T16:06:20;5.20;;;4.90;;
5878;SDS011;2965;42.640;23.370;2022-10-16T16:08:48;5.13;;;4.83;;
5878;SDS011;2965;42.640;23.370;2022-10-16T16:11:14;6.70;;;5.17;;
5878;SDS011;2965;42.640;23.370;2022-10-16T16:13:41;5.73;;;4.97;;
5878;SDS011;2965;42.640;23.370;2022-10-16T16:16:07;7.97;;;5.93;;
5878;SDS011;2965;42.640;23.370;2022-10-16T16:18:36;6.47;;;5.80;;
5878;SDS011;2965;42.640;23.370;2022-10-16T16:21:03;14.10;;;6.43;;
5878;SDS011;2965;42.640;23.370;2022-10-16T16:23:29;6.23;;;5.60;;
5878;SDS011;2965;42.640;23.370;2022-10-16T16:28:54;8.40;;;5.90;;
5878;SDS011;2965;42.640;23.370;2022-10-16T16:31:23;9.03;;;6.70;;
5878;SDS011;2965;42.640;23.370;2022-10-16T16:33:50;8.43;;;6.60;;
5878;SDS011;2965;42.640;23.370;2022-10-16T16:36:16;10.20;;;6.63;;
5878;SDS011;2965;42.640;23.370;2022-10-16T16:38:43;13.40;;;6.80;;
5878;SDS011;2965;42.640;23.370;2022-10-16T16:43:37;14.73;;;7.77;;
5878;SDS011;2965;42.640;23.370;2022-10-16T16:46:02;15.70;;;7.60;;
5878;SDS011;2965;42.640;23.370;2022-10-16T16:48:28;8.90;;;6.63;;
5878;SDS011;2965;42.640;23.370;2022-10-16T16:50:53;12.10;;;7.43;;
5878;SDS011;2965;42.640;23.370;2022-10-16T16:53:18;7.27;;;6.30;;
5878;SDS011;2965;42.640;23.370;2022-10-16T16:55:44;10.77;;;7.30;;
5878;SDS011;2965;42.640;23.370;2022-10-16T16:58:09;11.67;;;7.30;;
5878;SDS011;2965;42.640;23.370;2022-10-16T17:00:34;6.93;;;6.30;;
5878;SDS011;2965;42.640;23.370;2022-10-16T17:03:00;12.97;;;9.00;;
5878;SDS011;2965;42.640;23.370;2022-10-16T17:05:25;13.17;;;8.67;;
5878;SDS011;2965;42.640;23.370;2022-10-16T17:07:51;13.33;;;9.50;;
5878;SDS011;2965;42.640;23.370;2022-10-16T17:10:16;7.40;;;6.70;;
5878;SDS011;2965;42.640;23.370;2022-10-16T17:12:41;82.67;;;32.30;;
5878;SDS011;2965;42.640;23.370;2022-10-16T17:15:07;7.67;;;6.80;;
5878;SDS011;2965;42.640;23.370;2022-10-16T17:17:33;9.70;;;7.87;;
5878;SDS011;2965;42.640;23.370;2022-10-16T17:19:58;9.30;;;8.20;;
5878;SDS011;2965;42.640;23.370;2022-10-16T17:22:24;9.83;;;8.10;;
5878;SDS011;2965;42.640;23.370;2022-10-16T17:24:49;12.80;;;7.70;;
5878;SDS011;2965;42.640;23.370;2022-10-16T17:27:16;18.73;;;10.63;;
5878;SDS011;2965;42.640;23.370;2022-10-16T17:29:42;59.23;;;25.87;;
5878;SDS011;2965;42.640;23.370;2022-10-16T17:32:07;33.03;;;19.03;;
5878;SDS011;2965;42.640;23.370;2022-10-16T17:34:33;12.30;;;8.95;;
5878;SDS011;2965;42.640;23.370;2022-10-16T17:36:59;13.30;;;8.77;;
5878;SDS011;2965;42.640;23.370;2022-10-16T17:39:25;15.93;;;8.53;;
5878;SDS011;2965;42.640;23.370;2022-10-16T17:41:50;19.07;;;8.70;;
5878;SDS011;2965;42.640;23.370;2022-10-16T17:44:16;13.27;;;8.73;;
5878;SDS011;2965;42.640;23.370;2022-10-16T17:46:45;17.07;;;9.87;;
5878;SDS011;2965;42.640;23.370;2022-10-16T17:49:15;14.10;;;10.10;;
5878;SDS011;2965;42.640;23.370;2022-10-16T17:51:41;22.37;;;9.97;;
5878;SDS011;2965;42.640;23.370;2022-10-16T17:54:07;25.17;;;12.73;;
5878;SDS011;2965;42.640;23.370;2022-10-16T17:56:32;31.27;;;14.30;;
5878;SDS011;2965;42.640;23.370;2022-10-16T17:58:59;22.50;;;12.80;;
5878;SDS011;2965;42.640;23.370;2022-10-16T18:01:26;14.83;;;10.47;;
5878;SDS011;2965;42.640;23.370;2022-10-16T18:03:57;15.47;;;9.47;;
5878;SDS011;2965;42.640;23.370;2022-10-16T18:06:25;12.77;;;8.10;;
5878;SDS011;2965;42.640;23.370;2022-10-16T18:08:52;14.80;;;8.87;;
5878;SDS011;2965;42.640;23.370;2022-10-16T18:11:18;13.03;;;8.50;;
5878;SDS011;2965;42.640;23.370;2022-10-16T18:13:44;14.27;;;8.07;;
5878;SDS011;2965;42.640;23.370;2022-10-16T18:16:10;11.10;;;8.00;;
5878;SDS011;2965;42.640;23.370;2022-10-16T18:18:38;9.63;;;7.70;;
5878;SDS011;2965;42.640;23.370;2022-10-16T18:21:06;12.17;;;7.80;;
5878;SDS011;2965;42.640;23.370;2022-10-16T18:23:33;17.73;;;8.20;;
5878;SDS011;2965;42.640;23.370;2022-10-16T18:26:00;11.17;;;7.47;;
5878;SDS011;2965;42.640;23.370;2022-10-16T18:28:27;6.90;;;6.27;;
5878;SDS011;2965;42.640;23.370;2022-10-16T18:30:59;9.23;;;6.97;;
5878;SDS011;2965;42.640;23.370;2022-10-16T18:33:27;7.60;;;6.83;;
5878;SDS011;2965;42.640;23.370;2022-10-16T18:35:54;10.60;;;6.43;;
5878;SDS011;2965;42.640;23.370;2022-10-16T18:38:20;11.83;;;6.87;;
5878;SDS011;2965;42.640;23.370;2022-10-16T18:40:46;10.53;;;6.70;;
5878;SDS011;2965;42.640;23.370;2022-10-16T18:43:12;7.17;;;6.53;;
5878;SDS011;2965;42.640;23.370;2022-10-16T18:45:37;6.43;;;5.80;;
5878;SDS011;2965;42.640;23.370;2022-10-16T18:48:03;8.27;;;6.13;;
5878;SDS011;2965;42.640;23.370;2022-10-16T18:50:28;7.30;;;6.50;;
5878;SDS011;2965;42.640;23.370;2022-10-16T18:52:54;6.97;;;6.20;;
5878;SDS011;2965;42.640;23.370;2022-10-16T18:55:19;8.00;;;5.27;;
5878;SDS011;2965;42.640;23.370;2022-10-16T18:57:45;10.47;;;6.27;;
5878;SDS011;2965;42.640;23.370;2022-10-16T19:00:10;6.20;;;5.60;;
5878;SDS011;2965;42.640;23.370;2022-10-16T19:02:36;7.87;;;7.07;;
5878;SDS011;2965;42.640;23.370;2022-10-16T19:05:01;7.17;;;6.40;;
5878;SDS011;2965;42.640;23.370;2022-10-16T19:07:27;14.30;;;6.53;;
5878;SDS011;2965;42.640;23.370;2022-10-16T19:09:53;10.50;;;6.83;;
5878;SDS011;2965;42.640;23.370;2022-10-16T19:12:18;7.63;;;6.53;;
5878;SDS011;2965;42.640;23.370;2022-10-16T19:14:46;7.80;;;6.57;;
5878;SDS011;2965;42.640;23.370;2022-10-16T19:17:12;7.83;;;7.03;;
5878;SDS011;2965;42.640;23.370;2022-10-16T19:19:37;8.63;;;7.00;;
5878;SDS011;2965;42.640;23.370;2022-10-16T19:22:03;7.73;;;6.60;;
5878;SDS011;2965;42.640;23.370;2022-10-16T19:24:54;13.80;;;8.90;;
5878;SDS011;2965;42.640;23.370;2022-10-16T19:27:19;16.80;;;11.03;;
5878;SDS011;2965;42.640;23.370;2022-10-16T19:29:45;11.87;;;7.77;;
5878;SDS011;2965;42.640;23.370;2022-10-16T19:32:10;7.13;;;6.43;;
5878;SDS011;2965;42.640;23.370;2022-10-16T19:34:35;11.40;;;8.23;;
5878;SDS011;2965;42.640;23.370;2022-10-16T19:37:01;15.10;;;7.10;;
5878;SDS011;2965;42.640;23.370;2022-10-16T19:39:26;12.60;;;8.00;;
5878;SDS011;2965;42.640;23.370;2022-10-16T19:41:52;11.83;;;6.63;;
5878;SDS011;2965;42.640;23.370;2022-10-16T19:44:18;9.70;;;7.80;;
5878;SDS011;2965;42.640;23.370;2022-10-16T19:46:44;14.70;;;9.40;;
5878;SDS011;2965;42.640;23.370;2022-10-16T19:49:12;13.43;;;9.60;;
5878;SDS011;2965;42.640;23.370;2022-10-16T19:51:38;19.60;;;9.60;;
5878;SDS011;2965;42.640;23.370;2022-10-16T19:54:05;7.90;;;6.93;;
5878;SDS011;2965;42.640;23.370;2022-10-16T19:56:33;6.50;;;6.00;;
5878;SDS011;2965;42.640;23.370;2022-10-16T19:58:59;22.03;;;7.60;;
5878;SDS011;2965;42.640;23.370;2022-10-16T20:01:27;8.30;;;6.43;;
5878;SDS011;2965;42.640;23.370;2022-10-16T20:03:54;11.37;;;6.80;;
5878;SDS011;2965;42.640;23.370;2022-10-16T20:06:20;6.77;;;6.00;;
5878;SDS011;2965;42.640;23.370;2022-10-16T20:08:47;7.27;;;5.83;;
5878;SDS011;2965;42.640;23.370;2022-10-16T20:11:16;10.63;;;7.33;;
5878;SDS011;2965;42.640;23.370;2022-10-16T20:42:29;11.27;;;6.50;;
5878;SDS011;2965;42.640;23.370;2022-10-16T20:44:55;7.63;;;6.90;;
5878;SDS011;2965;42.640;23.370;2022-10-16T20:47:20;9.13;;;7.00;;
5878;SDS011;2965;42.640;23.370;2022-10-16T20:49:45;8.97;;;5.97;;
5878;SDS011;2965;42.640;23.370;2022-10-16T20:52:11;8.00;;;6.43;;
5878;SDS011;2965;42.640;23.370;2022-10-16T20:54:36;7.50;;;6.77;;
5878;SDS011;2965;42.640;23.370;2022-10-16T20:57:01;7.80;;;6.77;;
5878;SDS011;2965;42.640;23.370;2022-10-16T20:59:27;7.03;;;6.40;;
